Time;durP1;ratioP1;P1;durP2;ratioP2;P2;SDS_P1;SDS_P2;PMS_P1;PMS_P2;Temp;Humidity;BMP_temperature;BMP_pressure;BME280_temperature;BME280_humidity;BME280_pressure;Samples;Min_cycle;Max_cycle;Signal;HPM_P1;HPM_P2
2022/05/20 00:00:30;;;;;;;50.28;23.95;;;17.00;99.90;;;;;;5068480;28;20031;-65
2022/05/20 00:02:56;;;;;;;48.95;23.83;;;17.00;99.90;;;;;;5065327;28;20032;-65
2022/05/20 00:05:22;;;;;;;53.97;24.55;;;16.90;99.90;;;;;;5072029;28;20402;-66
2022/05/20 00:07:47;;;;;;;46.40;22.63;;;16.90;99.90;;;;;;5066422;28;20036;-65
2022/05/20 00:10:17;;;;;;;48.92;22.23;;;16.90;99.90;;;;;;5069514;28;20493;-64
2022/05/20 00:12:44;;;;;;;50.67;22.13;;;17.00;99.90;;;;;;5068792;28;20032;-66
2022/05/20 00:15:13;;;;;;;51.42;23.73;;;17.00;99.90;;;;;;5069579;28;20032;-66
2022/05/20 00:17:39;;;;;;;44.55;22.20;;;17.00;99.90;;;;;;5064586;28;20666;-66
2022/05/20 00:20:07;;;;;;;41.28;20.40;;;17.10;99.90;;;;;;5068366;28;20043;-66
2022/05/20 00:22:32;;;;;;;48.35;22.63;;;17.20;99.90;;;;;;5069421;28;20021;-67
2022/05/20 00:27:42;;;;;;;37.72;19.58;;;17.20;99.90;;;;;;5070465;28;20410;-66
2022/05/20 00:30:08;;;;;;;40.55;21.88;;;17.30;99.90;;;;;;5068399;28;20033;-65
2022/05/20 00:32:34;;;;;;;45.08;20.50;;;17.30;99.90;;;;;;5067236;28;20032;-65
2022/05/20 00:35:00;;;;;;;41.92;21.27;;;17.20;99.90;;;;;;5067757;28;20531;-65
2022/05/20 00:37:25;;;;;;;37.75;20.15;;;17.20;99.90;;;;;;5070445;28;20067;-65
2022/05/20 00:39:51;;;;;;;40.55;21.95;;;17.30;99.90;;;;;;5067059;28;20166;-67
2022/05/20 00:42:18;;;;;;;42.28;21.13;;;17.30;99.90;;;;;;5067308;28;20103;-65
2022/05/20 00:44:44;;;;;;;38.33;20.83;;;17.30;99.90;;;;;;5068367;28;20032;-64
2022/05/20 00:47:12;;;;;;;38.13;20.50;;;17.30;99.90;;;;;;5070501;28;20109;-66
2022/05/20 00:49:41;;;;;;;44.97;19.92;;;17.30;99.90;;;;;;5070450;28;20112;-64
2022/05/20 00:52:10;;;;;;;37.20;19.67;;;17.30;99.90;;;;;;5070493;28;20047;-66
2022/05/20 00:54:43;;;;;;;36.83;21.45;;;17.30;99.90;;;;;;5071110;28;20118;-65
2022/05/20 00:57:18;;;;;;;48.65;21.23;;;17.30;99.90;;;;;;5067186;28;20020;-66
2022/05/20 00:59:50;;;;;;;37.97;19.23;;;17.20;99.90;;;;;;5060307;28;20478;-66
2022/05/20 01:02:18;;;;;;;40.08;20.90;;;17.20;99.90;;;;;;5070273;28;20020;-66
2022/05/20 01:04:45;;;;;;;40.97;21.25;;;17.20;99.90;;;;;;5065664;28;20052;-66
2022/05/20 01:07:12;;;;;;;43.47;20.85;;;17.20;99.90;;;;;;5069240;28;20138;-65
2022/05/20 01:09:39;;;;;;;51.95;23.40;;;17.30;99.90;;;;;;5062252;28;20106;-65
2022/05/20 01:12:05;;;;;;;38.15;21.20;;;17.30;99.90;;;;;;5067891;28;20033;-64
2022/05/20 01:14:31;;;;;;;44.75;21.52;;;17.30;99.90;;;;;;5068339;28;20016;-65
2022/05/20 01:16:57;;;;;;;42.95;22.05;;;17.30;99.90;;;;;;5070605;28;20028;-66
2022/05/20 01:19:35;;;;;;;45.08;22.40;;;17.30;99.90;;;;;;5066793;28;20521;-65
2022/05/20 01:22:01;;;;;;;46.67;22.58;;;17.30;99.90;;;;;;5069194;28;20115;-65
2022/05/20 01:24:27;;;;;;;48.05;21.42;;;17.20;99.90;;;;;;5066069;28;20115;-65
2022/05/20 01:26:52;;;;;;;37.47;21.80;;;17.20;99.90;;;;;;5065705;28;20025;-65
2022/05/20 01:29:18;;;;;;;40.95;21.60;;;17.20;99.90;;;;;;5066038;28;20029;-64
2022/05/20 01:31:43;;;;;;;43.10;22.15;;;17.20;99.90;;;;;;5068175;28;20037;-64
2022/05/20 01:34:09;;;;;;;42.95;23.23;;;17.20;99.90;;;;;;5068942;28;20071;-64
2022/05/20 01:36:34;;;;;;;44.50;22.63;;;17.20;99.90;;;;;;5069920;28;20032;-66
2022/05/20 01:39:00;;;;;;;39.90;22.38;;;17.20;99.90;;;;;;5067738;28;20028;-65
2022/05/20 01:41:47;;;;;;;45.85;21.95;;;17.20;99.90;;;;;;5064538;28;20538;-65
2022/05/20 01:44:45;;;;;;;42.20;22.10;;;17.20;99.90;;;;;;5066141;28;20032;-64
2022/05/20 01:47:16;;;;;;;41.80;21.27;;;17.20;99.90;;;;;;5068566;28;20079;-65
2022/05/20 01:49:46;;;;;;;38.28;20.73;;;17.10;99.90;;;;;;5068685;28;20020;-65
2022/05/20 01:52:18;;;;;;;45.47;21.08;;;17.10;99.90;;;;;;5067280;28;20050;-66
2022/05/20 01:55:07;;;;;;;41.13;21.25;;;17.10;99.90;;;;;;5068529;28;20099;-66
2022/05/20 01:58:01;;;;;;;46.88;21.55;;;17.10;99.90;;;;;;5066944;28;20033;-65
2022/05/20 02:00:30;;;;;;;44.10;21.67;;;17.00;99.90;;;;;;5063401;28;20062;-65
2022/05/20 02:03:27;;;;;;;48.25;20.73;;;17.00;99.90;;;;;;5066161;28;20035;-66
2022/05/20 02:06:09;;;;;;;35.10;18.85;;;17.00;99.90;;;;;;5064050;28;20037;-68
2022/05/20 02:08:57;;;;;;;38.75;20.17;;;17.00;99.90;;;;;;5067216;28;20028;-67
2022/05/20 02:11:32;;;;;;;40.47;19.10;;;17.00;99.90;;;;;;5064048;28;20032;-67
2022/05/20 02:14:06;;;;;;;;;;;17.00;99.90;;;;;;5069017;28;20017;-67
2022/05/20 02:16:37;;;;;;;36.88;19.42;;;17.00;99.90;;;;;;5066888;28;19908;-67
2022/05/20 02:19:23;;;;;;;36.75;19.73;;;17.00;99.90;;;;;;5065263;28;20033;-67
2022/05/20 02:21:53;;;;;;;36.83;18.70;;;17.00;99.90;;;;;;5051788;28;20036;-67
2022/05/20 02:24:22;;;;;;;48.75;21.67;;;17.00;99.90;;;;;;5067753;28;20035;-66
2022/05/20 02:27:01;;;;;;;40.95;20.63;;;17.00;99.90;;;;;;5056158;28;20692;-66
2022/05/20 02:29:31;;;;;;;50.38;20.17;;;17.00;99.90;;;;;;5067025;28;20037;-67
2022/05/20 02:32:35;;;;;;;43.85;18.92;;;17.00;99.90;;;;;;5066918;28;20123;-67
2022/05/20 02:35:01;;;;;;;38.17;19.27;;;16.90;99.90;;;;;;5029728;28;20563;-67
2022/05/20 02:37:30;;;;;;;46.45;20.58;;;16.80;99.90;;;;;;5068332;28;20020;-66
2022/05/20 02:39:56;;;;;;;37.55;19.05;;;16.80;99.90;;;;;;5048683;28;20036;-67
2022/05/20 02:42:22;;;;;;;38.10;18.90;;;16.80;99.90;;;;;;5068949;28;20032;-67
2022/05/20 02:44:49;;;;;;;37.95;18.00;;;16.80;99.90;;;;;;5064991;28;20081;-66
2022/05/20 02:47:15;;;;;;;47.70;21.25;;;16.80;99.90;;;;;;5068029;28;20137;-66
2022/05/20 02:49:41;;;;;;;45.38;21.70;;;16.80;99.90;;;;;;5067240;28;20522;-67
2022/05/20 02:52:07;;;;;;;48.28;19.67;;;16.80;99.90;;;;;;5065052;28;20067;-66
2022/05/20 02:54:33;;;;;;;43.15;20.38;;;16.90;99.90;;;;;;5061651;28;20390;-67
2022/05/20 02:56:58;;;;;;;42.05;20.27;;;16.90;99.90;;;;;;5065939;28;20114;-66
2022/05/20 03:04:52;;;;;;;38.58;19.50;;;16.90;99.90;;;;;;5062622;28;20036;-66
2022/05/20 03:07:18;;;;;;;48.10;21.80;;;16.90;99.90;;;;;;5061519;28;20024;-67
2022/05/20 03:09:43;;;;;;;42.80;20.13;;;16.90;99.90;;;;;;5064043;28;22009;-67
2022/05/20 03:12:11;;;;;;;51.80;21.65;;;16.80;99.90;;;;;;5067814;28;20028;-68
2022/05/20 03:14:38;;;;;;;45.75;21.08;;;16.80;99.90;;;;;;5063689;28;20024;-67
2022/05/20 03:17:04;;;;;;;40.05;21.20;;;16.80;99.90;;;;;;5060817;28;20033;-66
2022/05/20 03:19:30;;;;;;;49.42;21.77;;;16.80;99.90;;;;;;5066838;28;20056;-66
2022/05/20 03:22:04;;;;;;;45.85;20.73;;;16.70;99.90;;;;;;5068026;28;20061;-67
2022/05/20 03:24:30;;;;;;;40.22;20.50;;;16.60;99.90;;;;;;5066159;28;20131;-67
2022/05/20 03:26:56;;;;;;;44.22;21.05;;;16.60;99.90;;;;;;5064159;28;20075;-67
2022/05/20 03:29:22;;;;;;;49.10;23.13;;;16.60;99.90;;;;;;5068223;28;20060;-66
2022/05/20 03:31:48;;;;;;;44.35;20.83;;;16.50;99.90;;;;;;5063941;28;20028;-66
2022/05/20 03:34:14;;;;;;;48.85;20.08;;;16.50;99.90;;;;;;5046478;28;20111;-66
2022/05/20 03:36:42;;;;;;;46.78;21.58;;;16.60;99.90;;;;;;5063493;28;20112;-66
2022/05/20 03:39:10;;;;;;;52.75;22.80;;;16.60;99.90;;;;;;5065737;28;20059;-66
2022/05/20 03:41:37;;;;;;;46.10;22.10;;;16.60;99.90;;;;;;5062326;28;20033;-66
2022/05/20 03:44:04;;;;;;;45.90;21.67;;;16.60;99.90;;;;;;5067902;28;20120;-64
2022/05/20 03:46:31;;;;;;;49.70;22.08;;;16.70;99.90;;;;;;5065299;28;20107;-65
2022/05/20 03:48:58;;;;;;;51.25;22.05;;;16.60;99.90;;;;;;5064928;28;20036;-66
2022/05/20 03:51:23;;;;;;;51.58;21.55;;;16.60;99.90;;;;;;5066072;28;20093;-66
2022/05/20 03:53:49;;;;;;;45.20;22.40;;;16.60;99.90;;;;;;5066454;28;20033;-65
2022/05/20 03:56:15;;;;;;;50.83;21.75;;;16.60;99.90;;;;;;5067864;28;20024;-66
2022/05/20 03:58:40;;;;;;;48.95;23.20;;;16.40;99.90;;;;;;5063887;28;20020;-67
2022/05/20 04:03:53;;;;;;;53.88;24.48;;;16.20;99.90;;;;;;5061041;28;20035;-66
2022/05/20 04:06:19;;;;;;;55.50;26.35;;;16.10;99.90;;;;;;5064603;28;20031;-66
2022/05/20 04:08:45;;;;;;;54.85;24.95;;;16.10;99.90;;;;;;5067649;28;20025;-66
2022/05/20 04:11:13;;;;;;;68.50;27.77;;;16.00;99.90;;;;;;5065298;28;20038;-67
2022/05/20 04:13:40;;;;;;;60.78;25.83;;;16.00;99.90;;;;;;5067015;28;20016;-66
2022/05/20 04:16:07;;;;;;;64.72;27.45;;;16.00;99.90;;;;;;5064432;28;20033;-67
2022/05/20 04:21:08;;;;;;;60.35;25.83;;;16.10;99.90;;;;;;5095895;22;20127;-68
2022/05/20 04:23:34;;;;;;;57.20;24.08;;;16.20;99.90;;;;;;5085654;28;20024;-69
2022/05/20 04:26:00;;;;;;;56.17;23.25;;;16.30;99.90;;;;;;5081394;28;20032;-68
2022/05/20 04:28:26;;;;;;;59.78;27.08;;;16.30;99.90;;;;;;5086235;28;20085;-69
2022/05/20 04:30:58;;;;;;;55.03;26.60;;;16.40;99.90;;;;;;5070538;28;20558;-69
2022/05/20 04:33:25;;;;;;;54.78;25.52;;;16.40;99.90;;;;;;5068856;28;20017;-68
2022/05/20 04:35:51;;;;;;;60.28;26.30;;;16.50;99.90;;;;;;5052735;28;20703;-68
2022/05/20 04:38:16;;;;;;;52.85;26.10;;;16.50;99.90;;;;;;5067089;28;20104;-68
2022/05/20 04:40:42;;;;;;;61.60;27.80;;;16.60;99.90;;;;;;5070128;28;20028;-68
2022/05/20 04:48:37;;;;;;;51.25;23.52;;;16.70;99.90;;;;;;5070357;28;20040;-68
2022/05/20 04:51:02;;;;;;;52.92;25.95;;;16.80;99.90;;;;;;5069532;28;20379;-69
2022/05/20 04:56:12;;;;;;;62.30;27.48;;;16.70;99.90;;;;;;5069081;28;20508;-69
2022/05/20 04:58:38;;;;;;;57.40;26.45;;;16.70;99.90;;;;;;5068646;28;20032;-69
2022/05/20 05:01:04;;;;;;;57.28;28.33;;;16.60;99.90;;;;;;5071147;28;20162;-69
2022/05/20 05:03:29;;;;;;;62.33;27.75;;;16.70;99.90;;;;;;5071757;28;20095;-66
2022/05/20 05:05:55;;;;;;;62.88;27.98;;;16.80;99.90;;;;;;5066196;28;20058;-66
2022/05/20 05:08:20;;;;;;;62.75;29.05;;;16.80;99.90;;;;;;5071435;28;20035;-66
2022/05/20 05:10:48;;;;;;;56.97;26.63;;;16.90;99.90;;;;;;5068513;28;20468;-66
2022/05/20 05:13:14;;;;;;;60.92;28.33;;;16.90;99.90;;;;;;5071305;28;20028;-66
2022/05/20 05:15:43;;;;;;;68.03;30.35;;;17.00;99.90;;;;;;5065021;28;20028;-65
2022/05/20 05:18:21;;;;;;;62.58;28.70;;;17.00;99.90;;;;;;5061944;28;21255;-65
2022/05/20 05:20:50;;;;;;;60.58;27.23;;;17.10;99.90;;;;;;5066894;28;20025;-66
2022/05/20 05:23:17;;;;;;;59.75;28.65;;;17.20;99.90;;;;;;5070489;28;20559;-65
2022/05/20 05:25:43;;;;;;;58.88;27.77;;;17.20;99.90;;;;;;5069693;28;20055;-66
2022/05/20 05:28:09;;;;;;;64.47;29.52;;;17.30;99.90;;;;;;5069736;28;20371;-66
2022/05/20 05:30:35;;;;;;;62.42;26.55;;;17.40;99.90;;;;;;5069250;28;20036;-66
2022/05/20 05:33:01;;;;;;;54.22;26.23;;;17.40;99.90;;;;;;5068237;28;20024;-66
2022/05/20 05:35:29;;;;;;;59.42;29.10;;;17.40;99.90;;;;;;5067755;28;20367;-66
2022/05/20 05:37:55;;;;;;;65.80;26.67;;;17.40;99.90;;;;;;5069042;28;20154;-66
2022/05/20 05:40:23;;;;;;;51.65;24.27;;;17.50;99.90;;;;;;5069038;28;20033;-67
2022/05/20 05:42:49;;;;;;;57.28;25.25;;;17.50;99.90;;;;;;5074633;28;20051;-67
2022/05/20 05:45:19;;;;;;;54.63;24.65;;;17.50;99.90;;;;;;5069860;28;20414;-66
2022/05/20 05:47:49;;;;;;;59.75;27.77;;;17.60;99.90;;;;;;5069596;28;20032;-66
2022/05/20 05:50:15;;;;;;;51.60;26.15;;;17.60;99.90;;;;;;5068816;28;20032;-67
2022/05/20 05:52:41;;;;;;;60.55;27.38;;;17.60;99.90;;;;;;5069432;28;20394;-66
2022/05/20 05:55:08;;;;;;;59.03;27.85;;;17.60;99.90;;;;;;5073548;28;20059;-66
2022/05/20 05:57:34;;;;;;;63.70;27.67;;;17.60;99.90;;;;;;5063158;28;20486;-66
2022/05/20 06:00:00;;;;;;;66.65;28.98;;;17.70;99.90;;;;;;5051472;28;20070;-66
2022/05/20 06:02:25;;;;;;;60.47;27.98;;;17.70;99.90;;;;;;5066661;28;20548;-66
2022/05/20 06:04:51;;;;;;;60.00;27.60;;;17.80;99.90;;;;;;5071471;28;20078;-66
2022/05/20 06:07:18;;;;;;;61.25;28.33;;;17.80;99.90;;;;;;5069478;28;20032;-66
2022/05/20 06:09:43;;;;;;;61.78;28.33;;;17.90;99.90;;;;;;5067956;28;20037;-65
2022/05/20 06:12:09;;;;;;;64.55;27.75;;;17.90;99.90;;;;;;5070618;28;20405;-66
2022/05/20 06:14:35;;;;;;;64.60;30.48;;;18.00;99.90;;;;;;5071490;28;20505;-66
2022/05/20 06:17:01;;;;;;;71.03;31.73;;;17.90;99.90;;;;;;5068582;28;20099;-65
2022/05/20 06:19:26;;;;;;;72.63;29.52;;;18.00;99.90;;;;;;5072684;28;20096;-68
2022/05/20 06:21:52;;;;;;;73.78;31.92;;;18.00;99.90;;;;;;5068932;28;20033;-65
2022/05/20 06:24:18;;;;;;;68.07;30.92;;;18.00;99.90;;;;;;5067571;28;20040;-66
2022/05/20 06:26:44;;;;;;;80.53;30.67;;;18.10;99.90;;;;;;5066768;28;20032;-66
2022/05/20 06:29:10;;;;;;;67.63;29.02;;;18.10;99.90;;;;;;5069940;28;20031;-66
2022/05/20 06:31:36;;;;;;;71.45;30.42;;;18.10;99.90;;;;;;5063658;28;20538;-66
2022/05/20 06:34:01;;;;;;;71.05;30.42;;;18.30;99.90;;;;;;5070220;28;20025;-66
2022/05/20 06:41:56;;;;;;;78.22;35.75;;;18.50;99.90;;;;;;5068464;28;20059;-67
2022/05/20 06:44:24;;;;;;;72.88;33.35;;;18.50;99.90;;;;;;5069986;28;20427;-66
2022/05/20 06:46:50;;;;;;;75.70;33.45;;;18.50;99.90;;;;;;5068158;28;20032;-66
2022/05/20 06:49:16;;;;;;;75.22;35.13;;;18.60;99.90;;;;;;5068675;28;20024;-66
2022/05/20 06:51:42;;;;;;;66.75;34.88;;;18.60;99.90;;;;;;5068641;28;20055;-66
2022/05/20 06:54:09;;;;;;;71.63;35.10;;;18.60;99.90;;;;;;5069310;28;20154;-66
2022/05/20 06:56:36;;;;;;;72.15;33.08;;;18.60;99.90;;;;;;5068294;28;20016;-67
2022/05/20 06:59:05;;;;;;;68.05;31.75;;;18.40;99.90;;;;;;5067519;28;20056;-66
2022/05/20 07:01:31;;;;;;;75.45;34.58;;;18.50;99.90;;;;;;5042926;28;20222;-67
2022/05/20 07:03:58;;;;;;;70.38;32.40;;;18.40;99.90;;;;;;5068035;28;20175;-66
2022/05/20 07:06:25;;;;;;;63.95;31.60;;;18.50;99.90;;;;;;5072359;28;20060;-66
2022/05/20 07:08:51;;;;;;;66.13;30.02;;;18.60;99.90;;;;;;5075605;28;20063;-66
2022/05/20 07:11:19;;;;;;;65.38;31.02;;;18.60;99.90;;;;;;5049462;28;20056;-66
2022/05/20 07:13:46;;;;;;;66.80;31.50;;;18.50;99.90;;;;;;5068932;28;20024;-66
2022/05/20 07:16:12;;;;;;;65.72;30.45;;;18.50;99.90;;;;;;5068131;28;20035;-66
2022/05/20 07:18:38;;;;;;;70.50;31.83;;;18.50;99.90;;;;;;5068747;28;20039;-67
2022/05/20 07:21:04;;;;;;;63.30;30.05;;;18.60;99.90;;;;;;5068195;28;20043;-66
2022/05/20 07:23:31;;;;;;;68.00;27.95;;;18.60;99.90;;;;;;5068203;28;20031;-66
2022/05/20 07:25:57;;;;;;;65.50;30.70;;;18.60;99.90;;;;;;5067519;28;20021;-66
2022/05/20 07:28:23;;;;;;;56.08;26.52;;;18.60;99.90;;;;;;5068802;28;20111;-66
2022/05/20 07:30:49;;;;;;;69.28;31.75;;;18.70;99.90;;;;;;5067092;28;20047;-65
2022/05/20 07:33:15;;;;;;;66.18;29.70;;;18.70;99.90;;;;;;5069253;28;20478;-66
2022/05/20 07:35:40;;;;;;;64.75;29.23;;;18.90;99.90;;;;;;5064928;28;20444;-66
2022/05/20 07:38:07;;;;;;;71.85;29.23;;;19.10;99.90;;;;;;5068574;28;20045;-66
2022/05/20 07:40:32;;;;;;;61.28;28.17;;;19.30;99.90;;;;;;5068419;28;20103;-66
2022/05/20 07:42:58;;;;;;;66.82;29.98;;;19.50;99.90;;;;;;5050963;28;20108;-66
2022/05/20 07:45:24;;;;;;;55.78;27.73;;;19.70;99.90;;;;;;5071978;28;20028;-66
2022/05/20 07:47:50;;;;;;;59.75;28.35;;;19.70;99.90;;;;;;5062666;28;20100;-66
2022/05/20 07:50:16;;;;;;;54.50;27.75;;;19.70;99.90;;;;;;5067310;28;20112;-66
2022/05/20 07:55:34;;;;;;;63.35;28.63;;;19.80;99.90;;;;;;5072210;28;20027;-66
2022/05/20 07:58:02;;;;;;;58.72;28.50;;;19.90;99.90;;;;;;5068704;28;20486;-66
2022/05/20 08:00:28;;;;;;;57.95;27.83;;;20.00;99.90;;;;;;5068590;28;20474;-66
2022/05/20 08:02:57;;;;;;;58.13;30.60;;;19.90;99.90;;;;;;5070040;28;20047;-66
2022/05/20 08:05:23;;;;;;;56.35;26.42;;;20.00;99.90;;;;;;5073129;28;20028;-66
2022/05/20 08:07:50;;;;;;;53.08;28.95;;;20.00;99.90;;;;;;5075019;28;20033;-65
2022/05/20 08:10:22;;;;;;;51.75;27.67;;;20.20;99.90;;;;;;5072982;28;20432;-65
2022/05/20 08:12:48;;;;;;;56.72;25.17;;;20.40;99.90;;;;;;5072216;28;20044;-66
2022/05/20 08:15:15;;;;;;;53.72;26.00;;;20.70;99.90;;;;;;5073713;28;20021;-66
2022/05/20 08:17:43;;;;;;;51.83;26.00;;;20.70;99.90;;;;;;5054668;28;20028;-66
2022/05/20 08:20:16;;;;;;;57.00;27.40;;;20.80;99.90;;;;;;5072687;28;20028;-66
2022/05/20 08:22:42;;;;;;;55.53;26.88;;;20.70;99.90;;;;;;5077997;28;20073;-66
2022/05/20 08:25:09;;;;;;;48.65;24.60;;;20.60;99.90;;;;;;5070433;28;20032;-66
2022/05/20 08:27:34;;;;;;;50.33;24.27;;;20.70;99.90;;;;;;5069826;28;20075;-65
2022/05/20 08:30:09;;;;;;;47.33;24.27;;;20.70;99.90;;;;;;5067839;28;20052;-65
2022/05/20 08:32:35;;;;;;;50.10;24.80;;;20.60;99.90;;;;;;5064587;28;20055;-66
2022/05/20 08:35:03;;;;;;;56.17;26.20;;;20.70;99.90;;;;;;5071315;28;20025;-65
2022/05/20 08:37:28;;;;;;;48.47;23.55;;;20.60;99.90;;;;;;5071470;28;20423;-65
2022/05/20 08:39:54;;;;;;;48.50;25.25;;;20.70;99.90;;;;;;5071827;28;20071;-65
2022/05/20 08:42:23;;;;;;;51.10;24.45;;;20.70;99.90;;;;;;5072186;28;20078;-65
2022/05/20 08:44:49;;;;;;;53.00;24.45;;;20.80;99.90;;;;;;5073089;28;20028;-65
2022/05/20 08:47:27;;;;;;;52.30;23.17;;;20.60;99.90;;;;;;5053361;28;20454;-65
2022/05/20 08:50:00;;;;;;;46.20;23.13;;;20.70;99.90;;;;;;5070147;28;20040;-65
2022/05/20 08:52:26;;;;;;;55.75;23.95;;;20.90;99.90;;;;;;5069936;28;20067;-65
2022/05/20 08:54:52;;;;;;;45.55;22.45;;;21.00;99.90;;;;;;5071102;28;20016;-65
2022/05/20 08:57:28;;;;;;;38.10;18.98;;;21.00;99.90;;;;;;5046426;28;20478;-65
2022/05/20 08:59:54;;;;;;;42.30;20.08;;;21.20;99.90;;;;;;5065814;28;20028;-65
2022/05/20 09:02:21;;;;;;;37.25;19.15;;;21.30;99.90;;;;;;5077265;28;20024;-65
2022/05/20 09:04:48;;;;;;;45.10;20.67;;;21.30;99.90;;;;;;5072117;28;20123;-66
2022/05/20 09:07:15;;;;;;;32.53;17.52;;;21.20;99.90;;;;;;5076863;28;20024;-66
2022/05/20 09:09:59;;;;;;;33.45;16.15;;;21.30;99.90;;;;;;5053119;28;20024;-66
2022/05/20 09:12:33;;;;;;;34.33;15.77;;;21.30;99.90;;;;;;5067433;28;20021;-65
2022/05/20 09:18:20;;;;;;;30.67;15.77;;;21.50;99.90;;;;;;5070035;28;20137;-66
2022/05/20 09:20:50;;;;;;;25.67;13.68;;;21.80;99.90;;;;;;5068687;28;20029;-65
2022/05/20 09:23:20;;;;;;;26.80;14.23;;;22.00;99.90;;;;;;5071853;28;20036;-67
2022/05/20 09:26:01;;;;;;;26.05;14.02;;;22.20;99.90;;;;;;5074839;28;20558;-66
2022/05/20 09:28:36;;;;;;;24.42;12.93;;;22.40;99.90;;;;;;5053412;28;20029;-66
2022/05/20 09:31:43;;;;;;;26.33;14.00;;;22.60;99.90;;;;;;5070880;28;20025;-65
2022/05/20 09:34:24;;;;;;;25.30;13.15;;;22.60;99.90;;;;;;5050488;28;20440;-66
2022/05/20 09:37:00;;;;;;;21.52;12.85;;;22.60;99.90;;;;;;5072197;28;20077;-66
2022/05/20 09:39:39;;;;;;;25.08;12.82;;;22.60;99.90;;;;;;5071090;28;20099;-66
2022/05/20 09:42:16;;;;;;;20.13;12.15;;;22.50;99.90;;;;;;5066484;28;20032;-65
2022/05/20 09:44:45;;;;;;;21.38;11.95;;;22.50;99.90;;;;;;5070961;28;20032;-65
2022/05/20 09:47:15;;;;;;;18.77;11.40;;;22.70;99.90;;;;;;5070504;28;20024;-66
2022/05/20 09:49:42;;;;;;;21.25;12.52;;;23.00;99.90;;;;;;5069493;28;20068;-66
2022/05/20 09:52:25;;;;;;;21.90;11.35;;;23.00;99.90;;;;;;5071891;28;20031;-66
2022/05/20 09:55:06;;;;;;;18.60;10.95;;;23.30;99.90;;;;;;5070691;28;20032;-66
2022/05/20 09:57:39;;;;;;;19.52;9.88;;;23.40;99.90;;;;;;5069384;28;20467;-68
2022/05/20 10:00:15;;;;;;;19.85;10.68;;;23.50;99.90;;;;;;5068677;28;20509;-68
2022/05/20 10:03:11;;;;;;;19.05;11.27;;;23.80;99.90;;;;;;5062547;28;20073;-68
2022/05/20 10:05:47;;;;;;;19.38;11.95;;;23.80;99.90;;;;;;5068285;28;20032;-68
2022/05/20 10:08:34;;;;;;;16.58;9.93;;;24.00;99.90;;;;;;5053020;28;20074;-68
2022/05/20 10:11:39;;;;;;;15.18;8.98;;;23.70;99.90;;;;;;5047415;28;20108;-68
2022/05/20 10:14:13;;;;;;;11.60;8.45;;;24.00;99.90;;;;;;5050644;28;20051;-68
2022/05/20 10:17:07;;;;;;;13.55;8.73;;;24.10;99.90;;;;;;5070822;28;20060;-67
2022/05/20 10:20:04;;;;;;;14.57;8.63;;;24.40;99.90;;;;;;5063701;28;20059;-68
2022/05/20 10:22:39;;;;;;;11.52;7.32;;;24.60;99.90;;;;;;5088144;22;20528;-64
2022/05/20 10:25:10;;;;;;;10.48;6.70;;;25.00;99.90;;;;;;5063339;28;20036;-62
2022/05/20 10:28:01;;;;;;;12.45;7.63;;;25.30;99.90;;;;;;5065304;28;20032;-63
2022/05/20 10:33:25;;;;;;;11.75;6.47;;;25.10;99.90;;;;;;5056633;28;20465;-63
2022/05/20 10:36:03;;;;;;;8.60;6.78;;;25.40;99.90;;;;;;5063229;28;20040;-63
2022/05/20 10:39:06;;;;;;;9.88;5.72;;;25.40;99.90;;;;;;5059349;28;20032;-64
2022/05/20 10:41:59;;;;;;;11.85;7.05;;;25.60;99.90;;;;;;5064076;28;20409;-62
2022/05/20 10:48:36;;;;;;;9.98;6.72;;;25.50;99.90;;;;;;5066822;28;20596;-65
2022/05/20 10:51:28;;;;;;;9.68;6.25;;;25.50;99.90;;;;;;5058335;28;20045;-63
2022/05/20 10:54:12;;;;;;;10.55;7.10;;;25.70;99.90;;;;;;5050527;28;20025;-64
2022/05/20 10:56:58;;;;;;;13.75;7.22;;;25.80;99.90;;;;;;5041609;28;20032;-65
2022/05/20 10:59:59;;;;;;;13.05;6.65;;;25.40;99.90;;;;;;5060178;28;20049;-64
2022/05/20 11:02:42;;;;;;;12.32;6.72;;;25.40;99.90;;;;;;5066372;28;20020;-64
2022/05/20 11:05:23;;;;;;;10.45;6.78;;;25.20;99.90;;;;;;5071564;28;20025;-65
2022/05/20 11:08:23;;;;;;;13.63;6.65;;;25.00;99.90;;;;;;5071541;28;20097;-64
2022/05/20 11:10:54;;;;;;;11.05;6.93;;;25.00;99.90;;;;;;5069009;28;20028;-64
2022/05/20 11:13:35;;;;;;;11.35;6.15;;;25.30;99.90;;;;;;5071172;28;20024;-64
2022/05/20 11:16:22;;;;;;;12.05;6.07;;;26.00;99.90;;;;;;5071305;28;20635;-64
2022/05/20 11:19:06;;;;;;;8.63;6.47;;;26.20;99.90;;;;;;5071235;28;20055;-64
2022/05/20 11:22:02;;;;;;;12.07;6.30;;;25.90;99.90;;;;;;5066404;28;20040;-63
2022/05/20 11:24:45;;;;;;;14.93;6.53;;;25.80;99.90;;;;;;5071335;28;20024;-64
2022/05/20 11:27:48;;;;;;;9.73;7.07;;;25.80;99.90;;;;;;5071289;28;20115;-64
2022/05/20 11:30:17;;;;;;;10.10;6.35;;;25.50;99.90;;;;;;5065618;28;20478;-65
2022/05/20 11:33:14;;;;;;;7.97;6.05;;;25.20;99.90;;;;;;5071095;28;20024;-64
2022/05/20 11:35:59;;;;;;;13.45;6.95;;;25.20;99.90;;;;;;5070991;28;20021;-64
2022/05/20 11:38:51;;;;;;;13.93;7.18;;;25.00;99.90;;;;;;5072932;28;20506;-65
2022/05/20 11:41:50;;;;;;;15.98;6.88;;;24.80;99.90;;;;;;5070903;28;20504;-65
2022/05/20 11:44:37;;;;;;;9.18;6.80;;;24.70;99.90;;;;;;5075045;28;20425;-64
2022/05/20 11:47:30;;;;;;;9.80;6.50;;;25.00;99.90;;;;;;5074977;28;20103;-64
2022/05/20 11:50:01;;;;;;;10.60;6.40;;;25.20;99.90;;;;;;5068530;28;20056;-65
2022/05/20 11:52:46;;;;;;;8.15;6.25;;;25.20;99.90;;;;;;5066148;28;20020;-66
2022/05/20 11:55:21;;;;;;;9.85;7.05;;;25.20;99.90;;;;;;5061698;28;20025;-65
2022/05/20 11:57:57;;;;;;;10.93;6.80;;;24.90;99.90;;;;;;5070836;28;20036;-65
2022/05/20 12:00:23;;;;;;;10.52;6.95;;;24.60;99.90;;;;;;5068471;28;20063;-65
2022/05/20 12:02:56;;;;;;;10.80;7.95;;;24.50;99.90;;;;;;5062022;28;20032;-63
2022/05/20 12:05:25;;;;;;;10.73;6.53;;;24.30;99.90;;;;;;5070876;28;20095;-66
2022/05/20 12:07:51;;;;;;;7.60;5.95;;;24.30;99.90;;;;;;5067705;28;20024;-66
2022/05/20 12:10:32;;;;;;;10.15;7.15;;;24.30;99.90;;;;;;5061837;28;20028;-66
2022/05/20 12:13:16;;;;;;;12.88;7.18;;;24.20;99.90;;;;;;5071279;28;20016;-66
2022/05/20 12:16:16;;;;;;;7.97;6.30;;;24.30;99.90;;;;;;5054232;28;20440;-65
2022/05/20 12:24:40;;;;;;;9.95;7.03;;;24.00;99.90;;;;;;5070898;28;20164;-64
2022/05/20 12:27:22;;;;;;;16.08;7.85;;;23.90;99.90;;;;;;5071095;28;20022;-64
2022/05/20 12:30:06;;;;;;;16.60;8.15;;;23.90;99.90;;;;;;5072282;28;20055;-65
2022/05/20 12:32:34;;;;;;;10.80;8.40;;;23.70;99.90;;;;;;5068741;28;20032;-66
2022/05/20 12:35:11;;;;;;;15.00;10.07;;;23.60;99.90;;;;;;5072088;28;20063;-66
2022/05/20 12:37:43;;;;;;;17.55;10.43;;;23.40;99.90;;;;;;5072409;28;20077;-66
2022/05/20 12:40:27;;;;;;;14.88;9.93;;;22.90;99.90;;;;;;5067230;28;20478;-66
2022/05/20 12:42:57;;;;;;;;;;;22.80;99.90;;;;;;5072067;28;20039;-66
2022/05/20 12:45:25;;;;;;;14.93;10.13;;;22.60;99.90;;;;;;5071503;28;19915;-66
2022/05/20 12:47:51;;;;;;;17.88;11.70;;;22.30;99.90;;;;;;5071521;28;20029;-66
2022/05/20 12:50:16;;;;;;;16.15;11.48;;;22.30;99.90;;;;;;5067588;28;20073;-68
2022/05/20 12:52:51;;;;;;;19.48;12.57;;;22.20;99.90;;;;;;5048152;28;20091;-65
2022/05/20 12:55:24;;;;;;;20.85;13.95;;;22.00;99.90;;;;;;5071470;28;20402;-66
2022/05/20 12:57:56;;;;;;;19.52;12.80;;;22.00;99.90;;;;;;5071637;28;20021;-67
2022/05/20 13:00:26;;;;;;;18.27;13.45;;;22.00;99.90;;;;;;5064149;28;20016;-67
2022/05/20 13:03:08;;;;;;;20.30;13.30;;;22.00;99.90;;;;;;5068351;28;20035;-67
2022/05/20 13:05:46;;;;;;;20.52;12.82;;;22.10;99.90;;;;;;5066898;28;20040;-66
2022/05/20 13:08:17;;;;;;;19.38;12.48;;;22.20;99.90;;;;;;5048783;28;20494;-67
2022/05/20 13:10:43;;;;;;;15.10;9.40;;;22.30;99.90;;;;;;5065268;28;20044;-67
2022/05/20 13:13:18;;;;;;;12.65;7.90;;;22.30;99.90;;;;;;5063720;28;20039;-67
2022/05/20 13:15:56;;;;;;;15.35;9.32;;;22.50;99.90;;;;;;5062774;28;20060;-66
2022/05/20 13:18:58;;;;;;;12.07;8.02;;;22.70;99.90;;;;;;5068420;28;20401;-66
2022/05/20 13:21:27;;;;;;;12.23;7.18;;;23.00;99.90;;;;;;5042872;28;20041;-66
2022/05/20 13:23:54;;;;;;;10.88;6.28;;;23.20;99.90;;;;;;5059312;28;20453;-67
2022/05/20 13:26:31;;;;;;;12.73;6.38;;;23.40;99.90;;;;;;5068153;28;20024;-64
2022/05/20 13:29:11;;;;;;;13.55;6.13;;;23.50;99.90;;;;;;5072960;28;20035;-64
2022/05/20 13:31:36;;;;;;;11.90;6.38;;;23.70;99.90;;;;;;5070730;28;20111;-65
2022/05/20 13:34:03;;;;;;;7.85;5.72;;;23.80;99.90;;;;;;5061456;28;20103;-64
2022/05/20 13:36:36;;;;;;;6.70;4.78;;;23.90;99.90;;;;;;5064393;28;20649;-65
2022/05/20 13:39:03;;;;;;;13.60;5.80;;;24.10;99.90;;;;;;5066457;28;20459;-65